sensor_id;sensor_type;location;lat;lon;timestamp;temperature;humidity
53926;DHT22;39836;52.754;6.866;2023-06-19T10:30:28;24.50;70.50
53926;DHT22;39836;52.754;6.866;2023-06-19T10:33:10;24.40;70.50
53926;DHT22;39836;52.754;6.866;2023-06-19T10:35:40;24.20;70.60
53926;DHT22;39836;52.754;6.866;2023-06-19T10:38:10;24.40;70.60
53926;DHT22;39836;52.754;6.866;2023-06-19T10:40:38;24.60;70.60
53926;DHT22;39836;52.754;6.866;2023-06-19T10:43:04;24.90;70.80
53926;DHT22;39836;52.754;6.866;2023-06-19T10:45:29;25.10;70.70
53926;DHT22;39836;52.754;6.866;2023-06-19T10:47:55;25.20;70.60
53926;DHT22;39836;52.754;6.866;2023-06-19T10:50:22;25.20;70.30
53926;DHT22;39836;52.754;6.866;2023-06-19T10:52:48;25.20;70.30
53926;DHT22;39836;52.754;6.866;2023-06-19T10:55:19;25.30;70.30
53926;DHT22;39836;52.754;6.866;2023-06-19T10:57:45;25.20;70.40
53926;DHT22;39836;52.754;6.866;2023-06-19T11:00:11;25.20;70.10
53926;DHT22;39836;52.754;6.866;2023-06-19T11:02:47;25.20;70.10
53926;DHT22;39836;52.754;6.866;2023-06-19T11:05:12;25.00;70.10
53926;DHT22;39836;52.754;6.866;2023-06-19T11:07:39;25.00;70.00
53926;DHT22;39836;52.754;6.866;2023-06-19T11:10:05;25.10;70.10
53926;DHT22;39836;52.754;6.866;2023-06-19T11:12:32;25.10;70.00
53926;DHT22;39836;52.754;6.866;2023-06-19T11:15:03;25.30;70.20
53926;DHT22;39836;52.754;6.866;2023-06-19T11:17:30;25.40;70.20
53926;DHT22;39836;52.754;6.866;2023-06-19T11:19:57;25.60;70.30
53926;DHT22;39836;52.754;6.866;2023-06-19T11:22:37;25.70;70.30
53926;DHT22;39836;52.754;6.866;2023-06-19T11:25:05;25.80;70.00
53926;DHT22;39836;52.754;6.866;2023-06-19T11:27:31;25.90;69.90
53926;DHT22;39836;52.754;6.866;2023-06-19T11:29:57;25.80;69.90
53926;DHT22;39836;52.754;6.866;2023-06-19T11:32:34;25.80;69.70
53926;DHT22;39836;52.754;6.866;2023-06-19T11:35:06;25.90;69.70
53926;DHT22;39836;52.754;6.866;2023-06-19T11:37:33;26.00;69.50
53926;DHT22;39836;52.754;6.866;2023-06-19T11:39:59;26.00;69.30
53926;DHT22;39836;52.754;6.866;2023-06-19T11:42:25;26.00;69.40
53926;DHT22;39836;52.754;6.866;2023-06-19T11:45:02;26.00;69.20
53926;DHT22;39836;52.754;6.866;2023-06-19T11:47:32;26.10;69.10
53926;DHT22;39836;52.754;6.866;2023-06-19T11:49:58;26.10;69.00
53926;DHT22;39836;52.754;6.866;2023-06-19T11:52:25;26.00;68.90
53926;DHT22;39836;52.754;6.866;2023-06-19T11:54:51;26.00;68.90
53926;DHT22;39836;52.754;6.866;2023-06-19T11:57:17;26.20;69.00
53926;DHT22;39836;52.754;6.866;2023-06-19T11:59:42;26.30;68.90
53926;DHT22;39836;52.754;6.866;2023-06-19T12:02:09;26.30;69.00
53926;DHT22;39836;52.754;6.866;2023-06-19T12:04:34;26.30;68.90
53926;DHT22;39836;52.754;6.866;2023-06-19T12:07:01;26.30;68.90
53926;DHT22;39836;52.754;6.866;2023-06-19T12:09:27;26.40;68.80
53926;DHT22;39836;52.754;6.866;2023-06-19T12:11:53;26.40;68.70
53926;DHT22;39836;52.754;6.866;2023-06-19T12:14:19;26.40;68.80
53926;DHT22;39836;52.754;6.866;2023-06-19T12:16:46;26.70;69.00
53926;DHT22;39836;52.754;6.866;2023-06-19T12:19:12;26.80;68.80
53926;DHT22;39836;52.754;6.866;2023-06-19T12:21:38;26.80;68.80
53926;DHT22;39836;52.754;6.866;2023-06-19T12:24:04;26.90;68.80
53926;DHT22;39836;52.754;6.866;2023-06-19T12:26:30;26.90;68.60
53926;DHT22;39836;52.754;6.866;2023-06-19T12:28:56;26.70;68.60
53926;DHT22;39836;52.754;6.866;2023-06-19T12:31:22;26.60;68.60
53926;DHT22;39836;52.754;6.866;2023-06-19T12:33:48;26.70;68.70
53926;DHT22;39836;52.754;6.866;2023-06-19T12:36:16;27.00;68.70
53926;DHT22;39836;52.754;6.866;2023-06-19T12:38:42;27.20;68.60
53926;DHT22;39836;52.754;6.866;2023-06-19T12:41:08;27.20;68.80
53926;DHT22;39836;52.754;6.866;2023-06-19T12:43:33;27.30;68.70
53926;DHT22;39836;52.754;6.866;2023-06-19T12:45:59;27.20;68.70
53926;DHT22;39836;52.754;6.866;2023-06-19T12:48:26;27.10;68.70
53926;DHT22;39836;52.754;6.866;2023-06-19T12:50:52;27.00;68.50
53926;DHT22;39836;52.754;6.866;2023-06-19T12:53:18;26.80;68.50
53926;DHT22;39836;52.754;6.866;2023-06-19T12:55:44;26.70;68.60
53926;DHT22;39836;52.754;6.866;2023-06-19T12:58:10;26.80;68.70
53926;DHT22;39836;52.754;6.866;2023-06-19T13:00:37;26.90;68.70
53926;DHT22;39836;52.754;6.866;2023-06-19T13:03:02;27.00;68.60
53926;DHT22;39836;52.754;6.866;2023-06-19T13:05:28;27.30;68.60
53926;DHT22;39836;52.754;6.866;2023-06-19T13:07:54;27.50;68.60
53926;DHT22;39836;52.754;6.866;2023-06-19T13:10:20;27.50;68.50
53926;DHT22;39836;52.754;6.866;2023-06-19T13:12:46;27.60;68.60
53926;DHT22;39836;52.754;6.866;2023-06-19T13:15:11;27.50;68.30
53926;DHT22;39836;52.754;6.866;2023-06-19T13:17:37;27.50;68.40
53926;DHT22;39836;52.754;6.866;2023-06-19T13:20:03;27.50;68.40
53926;DHT22;39836;52.754;6.866;2023-06-19T13:22:31;27.70;68.60
53926;DHT22;39836;52.754;6.866;2023-06-19T13:24:57;27.80;68.40
53926;DHT22;39836;52.754;6.866;2023-06-19T13:27:22;27.70;68.30
53926;DHT22;39836;52.754;6.866;2023-06-19T13:29:48;27.90;68.30
53926;DHT22;39836;52.754;6.866;2023-06-19T13:32:14;28.30;68.50
53926;DHT22;39836;52.754;6.866;2023-06-19T13:34:40;28.60;68.30
53926;DHT22;39836;52.754;6.866;2023-06-19T13:37:05;28.90;68.00
53926;DHT22;39836;52.754;6.866;2023-06-19T13:39:31;29.10;68.00
53926;DHT22;39836;52.754;6.866;2023-06-19T13:41:57;29.20;67.90
53926;DHT22;39836;52.754;6.866;2023-06-19T13:44:25;29.20;67.80
53926;DHT22;39836;52.754;6.866;2023-06-19T13:46:51;29.30;67.70
53926;DHT22;39836;52.754;6.866;2023-06-19T13:49:16;29.50;67.70
53926;DHT22;39836;52.754;6.866;2023-06-19T13:51:42;29.30;67.60
53926;DHT22;39836;52.754;6.866;2023-06-19T13:54:09;28.90;67.20
53926;DHT22;39836;52.754;6.866;2023-06-19T13:56:35;28.80;67.30
53926;DHT22;39836;52.754;6.866;2023-06-19T13:59:02;29.10;67.50
53926;DHT22;39836;52.754;6.866;2023-06-19T14:01:28;29.30;67.70
53926;DHT22;39836;52.754;6.866;2023-06-19T14:03:54;29.10;67.70
53926;DHT22;39836;52.754;6.866;2023-06-19T14:06:19;29.20;67.50
53926;DHT22;39836;52.754;6.866;2023-06-19T14:08:45;29.20;67.40
53926;DHT22;39836;52.754;6.866;2023-06-19T14:11:11;29.50;67.50
53926;DHT22;39836;52.754;6.866;2023-06-19T14:13:37;29.60;67.40
53926;DHT22;39836;52.754;6.866;2023-06-19T14:16:02;29.50;67.30
53926;DHT22;39836;52.754;6.866;2023-06-19T14:18:28;29.40;67.40
53926;DHT22;39836;52.754;6.866;2023-06-19T14:20:54;29.70;67.40
53926;DHT22;39836;52.754;6.866;2023-06-19T14:23:20;30.20;67.40
53926;DHT22;39836;52.754;6.866;2023-06-19T14:25:46;30.30;66.90
53926;DHT22;39836;52.754;6.866;2023-06-19T14:28:12;30.00;66.80
53926;DHT22;39836;52.754;6.866;2023-06-19T14:30:39;29.80;66.80
53926;DHT22;39836;52.754;6.866;2023-06-19T14:33:05;29.70;67.00
53926;DHT22;39836;52.754;6.866;2023-06-19T14:35:32;29.70;66.80
53926;DHT22;39836;52.754;6.866;2023-06-19T14:37:58;29.40;66.80
53926;DHT22;39836;52.754;6.866;2023-06-19T14:40:23;29.70;67.00
53926;DHT22;39836;52.754;6.866;2023-06-19T14:42:49;30.00;67.00
53926;DHT22;39836;52.754;6.866;2023-06-19T14:45:15;29.80;66.70
53926;DHT22;39836;52.754;6.866;2023-06-19T14:47:40;30.10;66.90
53926;DHT22;39836;52.754;6.866;2023-06-19T14:50:07;30.20;66.60
53926;DHT22;39836;52.754;6.866;2023-06-19T14:52:33;30.10;66.50
53926;DHT22;39836;52.754;6.866;2023-06-19T14:54:59;30.30;66.40
53926;DHT22;39836;52.754;6.866;2023-06-19T14:57:25;30.50;66.60
53926;DHT22;39836;52.754;6.866;2023-06-19T14:59:51;30.80;66.60
53926;DHT22;39836;52.754;6.866;2023-06-19T15:02:16;30.80;66.60
53926;DHT22;39836;52.754;6.866;2023-06-19T15:04:42;30.60;66.50
53926;DHT22;39836;52.754;6.866;2023-06-19T15:07:08;30.30;66.50
53926;DHT22;39836;52.754;6.866;2023-06-19T15:09:33;30.70;66.50
53926;DHT22;39836;52.754;6.866;2023-06-19T15:11:59;31.20;66.60
53926;DHT22;39836;52.754;6.866;2023-06-19T15:14:25;31.50;66.40
53926;DHT22;39836;52.754;6.866;2023-06-19T15:16:50;31.80;66.00
53926;DHT22;39836;52.754;6.866;2023-06-19T15:19:16;31.80;66.20
53926;DHT22;39836;52.754;6.866;2023-06-19T15:21:42;32.00;66.00
53926;DHT22;39836;52.754;6.866;2023-06-19T15:24:08;32.20;66.20
53926;DHT22;39836;52.754;6.866;2023-06-19T15:26:34;32.50;65.90
53926;DHT22;39836;52.754;6.866;2023-06-19T15:29:01;32.60;66.00
53926;DHT22;39836;52.754;6.866;2023-06-19T15:31:27;32.80;65.50
53926;DHT22;39836;52.754;6.866;2023-06-19T15:33:53;32.80;65.50
53926;DHT22;39836;52.754;6.866;2023-06-19T15:36:19;32.80;65.20
53926;DHT22;39836;52.754;6.866;2023-06-19T15:38:45;32.80;65.10
53926;DHT22;39836;52.754;6.866;2023-06-19T15:41:11;32.70;65.00
53926;DHT22;39836;52.754;6.866;2023-06-19T15:43:37;32.60;65.10
53926;DHT22;39836;52.754;6.866;2023-06-19T15:46:03;32.60;65.20
53926;DHT22;39836;52.754;6.866;2023-06-19T15:48:31;33.00;65.20
53926;DHT22;39836;52.754;6.866;2023-06-19T15:50:57;33.20;65.10
53926;DHT22;39836;52.754;6.866;2023-06-19T15:53:22;33.40;64.70
53926;DHT22;39836;52.754;6.866;2023-06-19T15:55:48;33.30;64.70
53926;DHT22;39836;52.754;6.866;2023-06-19T15:58:14;32.80;64.50
53926;DHT22;39836;52.754;6.866;2023-06-19T16:00:40;32.10;64.30
53926;DHT22;39836;52.754;6.866;2023-06-19T16:03:06;31.40;64.30
53926;DHT22;39836;52.754;6.866;2023-06-19T16:05:31;31.00;64.10
53926;DHT22;39836;52.754;6.866;2023-06-19T16:07:57;30.60;63.90
53926;DHT22;39836;52.754;6.866;2023-06-19T16:10:23;30.00;63.80
53926;DHT22;39836;52.754;6.866;2023-06-19T16:12:48;29.70;63.70
53926;DHT22;39836;52.754;6.866;2023-06-19T16:15:17;29.30;63.70
53926;DHT22;39836;52.754;6.866;2023-06-19T16:17:49;29.00;63.60
53926;DHT22;39836;52.754;6.866;2023-06-19T16:20:16;28.70;63.70
53926;DHT22;39836;52.754;6.866;2023-06-19T16:22:42;28.50;63.60
53926;DHT22;39836;52.754;6.866;2023-06-19T16:25:08;28.30;63.60
53926;DHT22;39836;52.754;6.866;2023-06-19T16:27:36;28.10;63.70
53926;DHT22;39836;52.754;6.866;2023-06-19T16:30:01;28.20;63.70
53926;DHT22;39836;52.754;6.866;2023-06-19T16:32:28;28.00;63.60
53926;DHT22;39836;52.754;6.866;2023-06-19T16:34:54;28.00;63.70
53926;DHT22;39836;52.754;6.866;2023-06-19T16:37:19;27.90;63.80
53926;DHT22;39836;52.754;6.866;2023-06-19T16:39:45;27.90;63.70
53926;DHT22;39836;52.754;6.866;2023-06-19T16:42:11;27.70;63.60
53926;DHT22;39836;52.754;6.866;2023-06-19T16:44:36;27.70;63.70
53926;DHT22;39836;52.754;6.866;2023-06-19T16:47:03;27.60;63.70
53926;DHT22;39836;52.754;6.866;2023-06-19T16:49:29;27.60;63.60
53926;DHT22;39836;52.754;6.866;2023-06-19T16:51:55;27.50;63.70
53926;DHT22;39836;52.754;6.866;2023-06-19T16:54:20;27.50;63.80
53926;DHT22;39836;52.754;6.866;2023-06-19T16:56:46;27.50;63.80
53926;DHT22;39836;52.754;6.866;2023-06-19T16:59:12;27.50;63.90
53926;DHT22;39836;52.754;6.866;2023-06-19T17:01:37;27.60;64.00
53926;DHT22;39836;52.754;6.866;2023-06-19T17:04:03;27.50;63.90
53926;DHT22;39836;52.754;6.866;2023-06-19T17:06:29;27.50;63.90
53926;DHT22;39836;52.754;6.866;2023-06-19T17:08:55;27.30;63.90
53926;DHT22;39836;52.754;6.866;2023-06-19T17:11:21;27.30;64.00
53926;DHT22;39836;52.754;6.866;2023-06-19T17:13:47;27.20;64.00
53926;DHT22;39836;52.754;6.866;2023-06-19T17:16:13;27.20;64.10
53926;DHT22;39836;52.754;6.866;2023-06-19T17:18:39;27.30;64.00
53926;DHT22;39836;52.754;6.866;2023-06-19T17:21:04;27.30;64.00
53926;DHT22;39836;52.754;6.866;2023-06-19T17:23:30;27.30;64.10
53926;DHT22;39836;52.754;6.866;2023-06-19T17:25:56;27.40;64.20
53926;DHT22;39836;52.754;6.866;2023-06-19T17:28:21;27.30;64.00
53926;DHT22;39836;52.754;6.866;2023-06-19T17:30:47;27.30;64.10
53926;DHT22;39836;52.754;6.866;2023-06-19T17:33:13;27.30;64.00
53926;DHT22;39836;52.754;6.866;2023-06-19T17:35:38;27.20;64.00
53926;DHT22;39836;52.754;6.866;2023-06-19T17:38:04;27.10;64.00
53926;DHT22;39836;52.754;6.866;2023-06-19T17:40:30;27.00;64.00
53926;DHT22;39836;52.754;6.866;2023-06-19T17:42:56;27.00;63.90
53926;DHT22;39836;52.754;6.866;2023-06-19T17:45:22;27.00;63.90
53926;DHT22;39836;52.754;6.866;2023-06-19T17:47:48;27.00;63.70
53926;DHT22;39836;52.754;6.866;2023-06-19T17:50:13;26.80;63.60
53926;DHT22;39836;52.754;6.866;2023-06-19T17:52:39;26.70;63.60
53926;DHT22;39836;52.754;6.866;2023-06-19T17:55:06;26.70;63.60
53926;DHT22;39836;52.754;6.866;2023-06-19T17:57:32;26.70;63.70
53926;DHT22;39836;52.754;6.866;2023-06-19T17:59:58;26.70;63.60
53926;DHT22;39836;52.754;6.866;2023-06-19T18:02:24;26.60;63.60
53926;DHT22;39836;52.754;6.866;2023-06-19T18:04:51;26.60;63.70
53926;DHT22;39836;52.754;6.866;2023-06-19T18:07:17;26.50;63.70
53926;DHT22;39836;52.754;6.866;2023-06-19T18:09:45;26.50;63.80
53926;DHT22;39836;52.754;6.866;2023-06-19T18:12:16;26.50;63.80
53926;DHT22;39836;52.754;6.866;2023-06-19T18:14:43;26.50;63.80
53926;DHT22;39836;52.754;6.866;2023-06-19T18:17:10;26.50;63.80
53926;DHT22;39836;52.754;6.866;2023-06-19T18:19:36;26.40;63.80
53926;DHT22;39836;52.754;6.866;2023-06-19T18:22:02;26.30;63.80
53926;DHT22;39836;52.754;6.866;2023-06-19T18:24:28;26.20;63.80
53926;DHT22;39836;52.754;6.866;2023-06-19T18:26:53;26.10;63.80
53926;DHT22;39836;52.754;6.866;2023-06-19T18:29:19;26.10;63.80
53926;DHT22;39836;52.754;6.866;2023-06-19T18:31:46;26.00;63.80
53926;DHT22;39836;52.754;6.866;2023-06-19T18:34:12;25.90;63.80
53926;DHT22;39836;52.754;6.866;2023-06-19T18:36:38;25.80;63.90
53926;DHT22;39836;52.754;6.866;2023-06-19T18:39:04;25.70;63.90
53926;DHT22;39836;52.754;6.866;2023-06-19T18:41:30;25.70;63.90
53926;DHT22;39836;52.754;6.866;2023-06-19T18:43:56;25.70;64.00
53926;DHT22;39836;52.754;6.866;2023-06-19T18:46:22;25.60;64.00
53926;DHT22;39836;52.754;6.866;2023-06-19T18:48:47;25.60;64.00
53926;DHT22;39836;52.754;6.866;2023-06-19T18:51:13;25.50;64.00
53926;DHT22;39836;52.754;6.866;2023-06-19T18:53:39;25.40;64.00
53926;DHT22;39836;52.754;6.866;2023-06-19T18:56:04;25.30;64.00
53926;DHT22;39836;52.754;6.866;2023-06-19T18:58:30;25.30;64.10
53926;DHT22;39836;52.754;6.866;2023-06-19T19:00:56;25.20;64.10
53926;DHT22;39836;52.754;6.866;2023-06-19T19:03:22;25.10;64.10
53926;DHT22;39836;52.754;6.866;2023-06-19T19:05:48;25.00;64.10
53926;DHT22;39836;52.754;6.866;2023-06-19T19:08:14;24.90;64.10
53926;DHT22;39836;52.754;6.866;2023-06-19T19:10:41;24.90;64.30
53926;DHT22;39836;52.754;6.866;2023-06-19T19:13:07;24.80;64.20
53926;DHT22;39836;52.754;6.866;2023-06-19T19:15:33;24.70;64.20
53926;DHT22;39836;52.754;6.866;2023-06-19T19:18:00;24.60;64.20
53926;DHT22;39836;52.754;6.866;2023-06-19T19:20:25;24.60;64.30
53926;DHT22;39836;52.754;6.866;2023-06-19T19:22:51;24.50;64.30
53926;DHT22;39836;52.754;6.866;2023-06-19T19:25:17;24.40;64.40
53926;DHT22;39836;52.754;6.866;2023-06-19T19:27:43;24.30;64.50
53926;DHT22;39836;52.754;6.866;2023-06-19T19:30:09;24.30;64.50
53926;DHT22;39836;52.754;6.866;2023-06-19T19:32:35;24.30;64.60
53926;DHT22;39836;52.754;6.866;2023-06-19T19:35:00;24.20;64.60
53926;DHT22;39836;52.754;6.866;2023-06-19T19:37:26;24.10;64.60
53926;DHT22;39836;52.754;6.866;2023-06-19T19:44:16;24.00;64.80
53926;DHT22;39836;52.754;6.866;2023-06-19T19:46:51;23.80;64.90
53926;DHT22;39836;52.754;6.866;2023-06-19T19:49:35;23.70;64.80
